KAXSKGUP

Guest
Details From KAXS - ALTUS QUARTZ MOUNTAIN RGNL
To KGUP - Gallup Muni
Flight Number -
Tags decoded
Created
Modified
Stats Distance 482 nm / 893 km
Max Altitude 0 ft / 0 m
Waypoints 7
Social Downloads 0
Likes 0
Share VATSIM

Download

Looking for another format? Having issues loading an existing format? Contact us
Advertisement - Login to hide

Notes

Requested: KAXS LTS PNH TCC ACH SAF KGUP

Route

KAXS LTS PNH TCC ACH SAF KGUP

ID Type Via Altitude Latitude Longitude Leg Dist Tot Dist Heading (true) Name
O KAXS APT - 0 ft / 0 m 34.69878˚ -99.33810˚ - 0 nm - ALTUS QUARTZ MOUNTAIN RGNL
LTS VOR - 0 ft / 0 m 34.66292˚ -99.27117˚ 3 nm 3 nm 123° / 123° ALTUS VORTAC
PNH VOR - 0 ft / 0 m 35.23506˚ -101.69903˚ 124 nm 128 nm 287° / 285° PANHANDLE VORTAC
TCC VOR - 0 ft / 0 m 35.18219˚ -103.59858˚ 93 nm 221 nm 269° / 268° TUCUMCARI VORTAC
ACH VOR - 0 ft / 0 m 35.11169˚ -105.03992˚ 70 nm 292 nm 267° / 266° ANTON CHICO VORTAC
SAF VOR - 0 ft / 0 m 35.54053˚ -106.06494˚ 56 nm 348 nm 297° / 297° SANTA FE VORTAC
O KGUP APT - 0 ft / 0 m 35.51106˚ -108.78930˚ 133 nm 482 nm 270° / 268° Gallup Muni

Altitude Profile

Advertisement - Login to hide

Weather


0- 5 10 15 20 25 30 35+ Temperature / ° C

Clouds and Precipitation
Forecast for 2017-12-13 18:00 UTC. Updated 2 hours ago

Ground ~20,000 ft ~40,000 ft Winds

KAXS

Details ICAO KAXS
Name ALTUS QUARTZ MOUNTAIN RGNL
Region United States
Timezone America/Chicago (UTC-6.0)
Stats Elevation 1,433 ft / 437 m (AMSL)
Location 34.698782° -99.338100°
Runways 1
Magnetic Variation 4.815° E

METAR

KAXS 131835Z AUTO 04012KT 10SM CLR 20/M08 A2998 RMK AO2 T01981077

Decode

TAF

Not found

Departure Runways

ID Width Length Bearing (true) Bearing (mag) Surface Threshold Offset Overrun Length
17 75 ft / 23 m 5,515 ft / 1,681 m 180.00° 175.19° Concrete 0 ft / 0 m 0 ft / 0 m
35 75 ft / 23 m 5,515 ft / 1,681 m 0.00° 355.19° Concrete 0 ft / 0 m 0 ft / 0 m

KGUP

Details ICAO KGUP (GUP)
Name Gallup Muni
Region United States
Timezone America/Denver (UTC-7.0)
Stats Elevation 6,472 ft / 1,973 m (AMSL)
Location 35.511058° -108.789303°
Runways 1
Magnetic Variation 9.485° E

METAR

KGUP 131753Z AUTO 00000KT 10SM CLR 04/M17 A3023 RMK AO2 SLP266 T00391172 10044 21144 58007

Decode

TAF

KGUP 131740Z 1318/1418 00000KT P6SM SKC FM132000 26007KT P6SM FEW200 FM140100 VRB03KT P6SM SCT200 FM141500 35006KT P6SM BKN120

Decode

Destination Runways

ID Width Length Bearing (true) Bearing (mag) Surface Threshold Offset Overrun Length
06 100 ft / 30 m 7,301 ft / 2,225 m 73.81° 64.33° Asphalt 0 ft / 0 m 0 ft / 0 m
24 100 ft / 30 m 7,301 ft / 2,225 m 253.82° 244.34° Asphalt 0 ft / 0 m 0 ft / 0 m

Approach Navaids

Runway Type Ident Frequency Range Bearing (true) Bearing (mag) Slope Elevation
06 Localiser IGUP 111.70 MHz 18 nm / 33 km 73.82° 64.34° - 6,484 ft / 1,976 m (AMSL)
06 DME IGUP 111.70 MHz 18 nm / 33 km - - - 6,499 ft / 1,981 m (AMSL)

Popular Alternatives